sensor_id;sensor_type;location;lat;lon;timestamp;P1;durP1;ratioP1;P2;durP2;ratioP2
32748;SDS011;19119;52.474;13.710;2022-09-12T00:01:24;4.18;;;2.10;;
32748;SDS011;19119;52.474;13.710;2022-09-12T00:03:54;3.83;;;2.15;;
32748;SDS011;19119;52.474;13.710;2022-09-12T00:06:26;2.95;;;1.98;;
32748;SDS011;19119;52.474;13.710;2022-09-12T00:08:54;4.35;;;2.00;;
32748;SDS011;19119;52.474;13.710;2022-09-12T00:11:25;3.58;;;2.17;;
32748;SDS011;19119;52.474;13.710;2022-09-12T00:13:54;3.40;;;1.80;;
32748;SDS011;19119;52.474;13.710;2022-09-12T00:16:21;3.33;;;1.92;;
32748;SDS011;19119;52.474;13.710;2022-09-12T00:18:48;3.17;;;2.30;;
32748;SDS011;19119;52.474;13.710;2022-09-12T00:21:14;2.88;;;1.80;;
32748;SDS011;19119;52.474;13.710;2022-09-12T00:23:41;3.15;;;1.88;;
32748;SDS011;19119;52.474;13.710;2022-09-12T00:26:07;3.17;;;1.98;;
32748;SDS011;19119;52.474;13.710;2022-09-12T00:28:33;2.78;;;1.88;;
32748;SDS011;19119;52.474;13.710;2022-09-12T00:31:06;2.85;;;1.85;;
32748;SDS011;19119;52.474;13.710;2022-09-12T00:33:34;2.40;;;1.53;;
32748;SDS011;19119;52.474;13.710;2022-09-12T00:36:02;2.65;;;1.65;;
32748;SDS011;19119;52.474;13.710;2022-09-12T00:38:29;2.50;;;1.48;;
32748;SDS011;19119;52.474;13.710;2022-09-12T00:40:54;2.70;;;1.80;;
32748;SDS011;19119;52.474;13.710;2022-09-12T00:45:57;2.22;;;1.58;;
32748;SDS011;19119;52.474;13.710;2022-09-12T00:48:41;2.72;;;1.65;;
32748;SDS011;19119;52.474;13.710;2022-09-12T00:51:11;2.42;;;1.85;;
32748;SDS011;19119;52.474;13.710;2022-09-12T00:53:38;5.63;;;1.80;;
32748;SDS011;19119;52.474;13.710;2022-09-12T00:56:08;2.30;;;1.40;;
32748;SDS011;19119;52.474;13.710;2022-09-12T00:58:36;2.40;;;1.70;;
32748;SDS011;19119;52.474;13.710;2022-09-12T01:01:06;2.70;;;1.63;;
32748;SDS011;19119;52.474;13.710;2022-09-12T01:03:32;2.20;;;1.65;;
32748;SDS011;19119;52.474;13.710;2022-09-12T01:06:31;2.80;;;1.88;;
32748;SDS011;19119;52.474;13.710;2022-09-12T01:08:51;2.70;;;1.33;;
32748;SDS011;19119;52.474;13.710;2022-09-12T01:11:19;2.50;;;1.60;;
32748;SDS011;19119;52.474;13.710;2022-09-12T01:13:45;2.45;;;1.83;;
32748;SDS011;19119;52.474;13.710;2022-09-12T01:16:13;2.50;;;1.70;;
32748;SDS011;19119;52.474;13.710;2022-09-12T01:25:05;1.92;;;1.30;;
32748;SDS011;19119;52.474;13.710;2022-09-12T01:36:59;3.53;;;1.40;;
32748;SDS011;19119;52.474;13.710;2022-09-12T01:39:03;2.28;;;1.33;;
32748;SDS011;19119;52.474;13.710;2022-09-12T01:44:33;2.85;;;1.58;;
32748;SDS011;19119;52.474;13.710;2022-09-12T01:47:10;2.05;;;1.55;;
32748;SDS011;19119;52.474;13.710;2022-09-12T01:50:23;1.95;;;1.33;;
32748;SDS011;19119;52.474;13.710;2022-09-12T01:54:58;1.70;;;1.20;;
32748;SDS011;19119;52.474;13.710;2022-09-12T01:57:32;3.40;;;1.42;;
32748;SDS011;19119;52.474;13.710;2022-09-12T02:00:22;2.05;;;1.40;;
32748;SDS011;19119;52.474;13.710;2022-09-12T02:03:22;2.63;;;1.48;;
32748;SDS011;19119;52.474;13.710;2022-09-12T02:08:30;1.90;;;1.38;;
32748;SDS011;19119;52.474;13.710;2022-09-12T02:11:11;3.05;;;1.73;;
32748;SDS011;19119;52.474;13.710;2022-09-12T02:13:46;2.85;;;1.70;;
32748;SDS011;19119;52.474;13.710;2022-09-12T02:16:31;2.70;;;1.45;;
32748;SDS011;19119;52.474;13.710;2022-09-12T02:19:06;2.40;;;1.45;;
32748;SDS011;19119;52.474;13.710;2022-09-12T02:21:36;2.55;;;1.63;;
32748;SDS011;19119;52.474;13.710;2022-09-12T02:24:06;2.65;;;1.70;;
32748;SDS011;19119;52.474;13.710;2022-09-12T02:26:35;3.30;;;1.65;;
32748;SDS011;19119;52.474;13.710;2022-09-12T02:29:08;2.80;;;1.60;;
32748;SDS011;19119;52.474;13.710;2022-09-12T02:34:10;2.28;;;1.50;;
32748;SDS011;19119;52.474;13.710;2022-09-12T02:37:02;2.45;;;1.80;;
32748;SDS011;19119;52.474;13.710;2022-09-12T02:39:53;3.58;;;1.77;;
32748;SDS011;19119;52.474;13.710;2022-09-12T02:42:21;2.47;;;1.58;;
32748;SDS011;19119;52.474;13.710;2022-09-12T02:44:49;2.97;;;1.95;;
32748;SDS011;19119;52.474;13.710;2022-09-12T02:50:16;3.22;;;1.92;;
32748;SDS011;19119;52.474;13.710;2022-09-12T02:52:42;2.03;;;1.42;;
32748;SDS011;19119;52.474;13.710;2022-09-12T02:55:08;2.85;;;1.75;;
32748;SDS011;19119;52.474;13.710;2022-09-12T02:57:37;3.28;;;1.63;;
32748;SDS011;19119;52.474;13.710;2022-09-12T03:00:03;2.70;;;1.90;;
32748;SDS011;19119;52.474;13.710;2022-09-12T03:18:38;3.10;;;1.90;;
32748;SDS011;19119;52.474;13.710;2022-09-12T03:21:11;2.42;;;1.70;;
32748;SDS011;19119;52.474;13.710;2022-09-12T03:23:50;3.08;;;1.80;;
32748;SDS011;19119;52.474;13.710;2022-09-12T03:26:31;2.50;;;1.80;;
32748;SDS011;19119;52.474;13.710;2022-09-12T03:29:06;3.00;;;1.38;;
32748;SDS011;19119;52.474;13.710;2022-09-12T03:31:33;3.38;;;1.58;;
32748;SDS011;19119;52.474;13.710;2022-09-12T03:33:59;2.13;;;1.63;;
32748;SDS011;19119;52.474;13.710;2022-09-12T03:36:26;2.92;;;1.73;;
32748;SDS011;19119;52.474;13.710;2022-09-12T03:38:53;2.47;;;1.77;;
32748;SDS011;19119;52.474;13.710;2022-09-12T03:41:19;3.17;;;1.85;;
32748;SDS011;19119;52.474;13.710;2022-09-12T03:43:45;1.98;;;1.52;;
32748;SDS011;19119;52.474;13.710;2022-09-12T03:46:11;2.55;;;1.40;;
32748;SDS011;19119;52.474;13.710;2022-09-12T03:48:38;4.82;;;2.13;;
32748;SDS011;19119;52.474;13.710;2022-09-12T03:51:05;2.60;;;1.50;;
32748;SDS011;19119;52.474;13.710;2022-09-12T03:53:33;2.88;;;1.70;;
32748;SDS011;19119;52.474;13.710;2022-09-12T03:55:59;2.65;;;1.50;;
32748;SDS011;19119;52.474;13.710;2022-09-12T03:58:29;2.42;;;1.60;;
32748;SDS011;19119;52.474;13.710;2022-09-12T04:00:55;2.47;;;1.67;;
32748;SDS011;19119;52.474;13.710;2022-09-12T04:03:21;2.53;;;1.58;;
32748;SDS011;19119;52.474;13.710;2022-09-12T04:05:46;2.53;;;1.95;;
32748;SDS011;19119;52.474;13.710;2022-09-12T04:08:12;2.95;;;2.03;;
32748;SDS011;19119;52.474;13.710;2022-09-12T04:10:38;3.60;;;2.22;;
32748;SDS011;19119;52.474;13.710;2022-09-12T04:13:04;2.45;;;1.73;;
32748;SDS011;19119;52.474;13.710;2022-09-12T04:15:30;2.47;;;1.80;;
32748;SDS011;19119;52.474;13.710;2022-09-12T04:17:55;2.75;;;1.73;;
32748;SDS011;19119;52.474;13.710;2022-09-12T04:20:21;2.50;;;1.65;;
32748;SDS011;19119;52.474;13.710;2022-09-12T04:22:46;2.90;;;1.80;;
32748;SDS011;19119;52.474;13.710;2022-09-12T04:25:12;2.33;;;1.35;;
32748;SDS011;19119;52.474;13.710;2022-09-12T04:27:37;2.20;;;1.42;;
32748;SDS011;19119;52.474;13.710;2022-09-12T04:30:05;2.45;;;1.70;;
32748;SDS011;19119;52.474;13.710;2022-09-12T04:32:31;2.75;;;1.60;;
32748;SDS011;19119;52.474;13.710;2022-09-12T04:34:56;2.55;;;1.65;;
32748;SDS011;19119;52.474;13.710;2022-09-12T04:37:22;3.28;;;1.90;;
32748;SDS011;19119;52.474;13.710;2022-09-12T04:39:48;2.65;;;1.42;;
32748;SDS011;19119;52.474;13.710;2022-09-12T04:42:15;2.53;;;1.67;;
32748;SDS011;19119;52.474;13.710;2022-09-12T04:44:41;2.40;;;1.65;;
32748;SDS011;19119;52.474;13.710;2022-09-12T04:47:07;2.78;;;1.73;;
32748;SDS011;19119;52.474;13.710;2022-09-12T04:49:32;2.22;;;1.45;;
32748;SDS011;19119;52.474;13.710;2022-09-12T04:51:58;2.78;;;1.58;;
32748;SDS011;19119;52.474;13.710;2022-09-12T04:54:23;1.83;;;1.40;;
32748;SDS011;19119;52.474;13.710;2022-09-12T04:56:49;3.72;;;2.03;;
32748;SDS011;19119;52.474;13.710;2022-09-12T04:59:16;3.00;;;1.55;;
32748;SDS011;19119;52.474;13.710;2022-09-12T05:01:43;2.08;;;1.42;;
32748;SDS011;19119;52.474;13.710;2022-09-12T05:04:09;2.70;;;1.60;;
32748;SDS011;19119;52.474;13.710;2022-09-12T05:06:37;2.35;;;1.67;;
32748;SDS011;19119;52.474;13.710;2022-09-12T05:09:04;3.13;;;1.60;;
32748;SDS011;19119;52.474;13.710;2022-09-12T05:11:33;2.75;;;1.50;;
32748;SDS011;19119;52.474;13.710;2022-09-12T05:14:00;2.80;;;1.55;;
32748;SDS011;19119;52.474;13.710;2022-09-12T05:16:26;2.50;;;1.65;;
32748;SDS011;19119;52.474;13.710;2022-09-12T05:18:54;2.95;;;1.63;;
32748;SDS011;19119;52.474;13.710;2022-09-12T05:21:21;2.22;;;1.40;;
32748;SDS011;19119;52.474;13.710;2022-09-12T05:23:53;2.28;;;1.48;;
32748;SDS011;19119;52.474;13.710;2022-09-12T05:26:20;2.15;;;1.48;;
32748;SDS011;19119;52.474;13.710;2022-09-12T05:28:47;1.92;;;1.40;;
32748;SDS011;19119;52.474;13.710;2022-09-12T05:31:18;2.42;;;1.40;;
32748;SDS011;19119;52.474;13.710;2022-09-12T05:33:49;2.22;;;1.55;;
32748;SDS011;19119;52.474;13.710;2022-09-12T05:36:16;3.05;;;1.80;;
32748;SDS011;19119;52.474;13.710;2022-09-12T05:38:44;2.13;;;1.38;;
32748;SDS011;19119;52.474;13.710;2022-09-12T05:41:14;3.22;;;1.88;;
32748;SDS011;19119;52.474;13.710;2022-09-12T05:43:41;2.80;;;1.60;;
32748;SDS011;19119;52.474;13.710;2022-09-12T05:46:08;2.75;;;1.50;;
32748;SDS011;19119;52.474;13.710;2022-09-12T05:48:41;3.03;;;2.17;;
32748;SDS011;19119;52.474;13.710;2022-09-12T05:51:09;2.33;;;1.65;;
32748;SDS011;19119;52.474;13.710;2022-09-12T05:54:05;2.70;;;1.60;;
32748;SDS011;19119;52.474;13.710;2022-09-12T05:56:33;3.47;;;2.25;;
32748;SDS011;19119;52.474;13.710;2022-09-12T05:59:04;2.95;;;2.00;;
32748;SDS011;19119;52.474;13.710;2022-09-12T06:01:32;3.38;;;2.05;;
32748;SDS011;19119;52.474;13.710;2022-09-12T06:03:59;2.20;;;1.63;;
32748;SDS011;19119;52.474;13.710;2022-09-12T06:06:28;4.75;;;2.47;;
32748;SDS011;19119;52.474;13.710;2022-09-12T06:08:55;2.90;;;1.98;;
32748;SDS011;19119;52.474;13.710;2022-09-12T06:11:23;3.30;;;2.08;;
32748;SDS011;19119;52.474;13.710;2022-09-12T06:13:51;4.63;;;2.20;;
32748;SDS011;19119;52.474;13.710;2022-09-12T06:16:18;2.78;;;1.92;;
32748;SDS011;19119;52.474;13.710;2022-09-12T06:18:48;3.67;;;2.55;;
32748;SDS011;19119;52.474;13.710;2022-09-12T06:21:15;3.25;;;1.95;;
32748;SDS011;19119;52.474;13.710;2022-09-12T06:23:42;3.72;;;2.40;;
32748;SDS011;19119;52.474;13.710;2022-09-12T06:26:10;3.33;;;2.30;;
32748;SDS011;19119;52.474;13.710;2022-09-12T06:28:37;4.57;;;2.60;;
32748;SDS011;19119;52.474;13.710;2022-09-12T06:31:04;3.55;;;2.28;;
32748;SDS011;19119;52.474;13.710;2022-09-12T06:33:39;2.85;;;2.13;;
32748;SDS011;19119;52.474;13.710;2022-09-12T06:36:07;3.08;;;2.30;;
32748;SDS011;19119;52.474;13.710;2022-09-12T06:38:38;3.67;;;2.40;;
32748;SDS011;19119;52.474;13.710;2022-09-12T06:41:07;3.45;;;2.40;;
32748;SDS011;19119;52.474;13.710;2022-09-12T06:43:36;4.07;;;2.42;;
32748;SDS011;19119;52.474;13.710;2022-09-12T06:46:03;3.47;;;2.53;;
32748;SDS011;19119;52.474;13.710;2022-09-12T06:48:28;3.63;;;2.63;;
32748;SDS011;19119;52.474;13.710;2022-09-12T06:50:58;3.08;;;2.20;;
32748;SDS011;19119;52.474;13.710;2022-09-12T06:53:25;3.47;;;2.40;;
32748;SDS011;19119;52.474;13.710;2022-09-12T06:56:01;3.45;;;2.42;;
32748;SDS011;19119;52.474;13.710;2022-09-12T06:58:31;3.20;;;2.33;;
32748;SDS011;19119;52.474;13.710;2022-09-12T07:01:00;3.88;;;2.50;;
32748;SDS011;19119;52.474;13.710;2022-09-12T07:03:37;3.63;;;2.35;;
32748;SDS011;19119;52.474;13.710;2022-09-12T07:06:04;3.58;;;2.13;;
32748;SDS011;19119;52.474;13.710;2022-09-12T07:08:32;3.58;;;2.25;;
32748;SDS011;19119;52.474;13.710;2022-09-12T07:10:59;2.90;;;2.20;;
32748;SDS011;19119;52.474;13.710;2022-09-12T07:13:43;3.70;;;2.60;;
32748;SDS011;19119;52.474;13.710;2022-09-12T07:16:11;3.33;;;2.33;;
32748;SDS011;19119;52.474;13.710;2022-09-12T07:18:37;4.07;;;2.13;;
32748;SDS011;19119;52.474;13.710;2022-09-12T07:21:05;3.58;;;2.22;;
32748;SDS011;19119;52.474;13.710;2022-09-12T07:23:32;3.08;;;2.08;;
32748;SDS011;19119;52.474;13.710;2022-09-12T07:25:58;3.70;;;2.47;;
32748;SDS011;19119;52.474;13.710;2022-09-12T07:28:25;2.95;;;1.85;;
32748;SDS011;19119;52.474;13.710;2022-09-12T07:30:51;3.17;;;2.22;;
32748;SDS011;19119;52.474;13.710;2022-09-12T07:33:18;2.95;;;2.20;;
32748;SDS011;19119;52.474;13.710;2022-09-12T07:35:48;3.00;;;2.00;;
32748;SDS011;19119;52.474;13.710;2022-09-12T07:38:14;3.58;;;2.20;;
32748;SDS011;19119;52.474;13.710;2022-09-12T07:40:40;2.90;;;2.03;;
32748;SDS011;19119;52.474;13.710;2022-09-12T07:43:06;3.10;;;2.05;;
32748;SDS011;19119;52.474;13.710;2022-09-12T07:45:32;2.72;;;1.65;;
32748;SDS011;19119;52.474;13.710;2022-09-12T07:47:58;2.85;;;1.90;;
32748;SDS011;19119;52.474;13.710;2022-09-12T07:50:24;3.17;;;1.73;;
32748;SDS011;19119;52.474;13.710;2022-09-12T07:52:49;2.40;;;1.70;;
32748;SDS011;19119;52.474;13.710;2022-09-12T07:55:17;2.70;;;2.13;;
32748;SDS011;19119;52.474;13.710;2022-09-12T07:57:43;2.33;;;1.60;;
32748;SDS011;19119;52.474;13.710;2022-09-12T08:00:08;2.60;;;1.77;;
32748;SDS011;19119;52.474;13.710;2022-09-12T08:02:35;3.63;;;2.30;;
32748;SDS011;19119;52.474;13.710;2022-09-12T08:05:00;2.47;;;1.98;;
32748;SDS011;19119;52.474;13.710;2022-09-12T08:07:26;2.33;;;1.52;;
32748;SDS011;19119;52.474;13.710;2022-09-12T08:09:52;2.30;;;1.60;;
32748;SDS011;19119;52.474;13.710;2022-09-12T08:12:17;2.38;;;1.60;;
32748;SDS011;19119;52.474;13.710;2022-09-12T08:14:44;1.90;;;1.25;;
32748;SDS011;19119;52.474;13.710;2022-09-12T08:17:10;2.42;;;1.50;;
32748;SDS011;19119;52.474;13.710;2022-09-12T08:19:36;2.58;;;1.58;;
32748;SDS011;19119;52.474;13.710;2022-09-12T08:22:02;2.60;;;1.40;;
32748;SDS011;19119;52.474;13.710;2022-09-12T08:24:28;1.92;;;1.25;;
32748;SDS011;19119;52.474;13.710;2022-09-12T08:26:53;2.03;;;1.52;;
32748;SDS011;19119;52.474;13.710;2022-09-12T08:29:19;1.63;;;1.30;;
32748;SDS011;19119;52.474;13.710;2022-09-12T08:31:45;1.50;;;1.17;;
32748;SDS011;19119;52.474;13.710;2022-09-12T08:34:11;1.70;;;1.23;;
32748;SDS011;19119;52.474;13.710;2022-09-12T08:36:36;1.58;;;1.00;;
32748;SDS011;19119;52.474;13.710;2022-09-12T08:39:03;1.40;;;1.00;;
32748;SDS011;19119;52.474;13.710;2022-09-12T08:52:28;1.30;;;0.80;;
32748;SDS011;19119;52.474;13.710;2022-09-12T08:54:57;1.30;;;1.00;;
32748;SDS011;19119;52.474;13.710;2022-09-12T08:57:22;2.13;;;0.75;;
32748;SDS011;19119;52.474;13.710;2022-09-12T08:59:48;1.10;;;1.00;;
32748;SDS011;19119;52.474;13.710;2022-09-12T09:02:21;1.35;;;0.80;;
32748;SDS011;19119;52.474;13.710;2022-09-12T09:13:14;2.45;;;1.00;;
32748;SDS011;19119;52.474;13.710;2022-09-12T09:16:16;1.35;;;1.00;;
32748;SDS011;19119;52.474;13.710;2022-09-12T09:19:00;0.68;;;0.60;;
32748;SDS011;19119;52.474;13.710;2022-09-12T09:21:34;1.17;;;0.70;;
32748;SDS011;19119;52.474;13.710;2022-09-12T09:24:07;0.90;;;0.70;;
32748;SDS011;19119;52.474;13.710;2022-09-12T09:29:32;2.05;;;0.60;;
32748;SDS011;19119;52.474;13.710;2022-09-12T09:32:03;0.57;;;0.43;;
32748;SDS011;19119;52.474;13.710;2022-09-12T09:34:38;0.57;;;0.40;;
32748;SDS011;19119;52.474;13.710;2022-09-12T09:37:27;2.13;;;0.52;;
32748;SDS011;19119;52.474;13.710;2022-09-12T09:45:25;0.90;;;0.70;;
32748;SDS011;19119;52.474;13.710;2022-09-12T09:47:56;0.75;;;0.65;;
32748;SDS011;19119;52.474;13.710;2022-09-12T09:50:34;1.60;;;0.90;;
32748;SDS011;19119;52.474;13.710;2022-09-12T09:53:00;2.00;;;0.70;;
32748;SDS011;19119;52.474;13.710;2022-09-12T09:55:29;1.17;;;0.63;;
32748;SDS011;19119;52.474;13.710;2022-09-12T09:58:02;1.40;;;0.60;;
32748;SDS011;19119;52.474;13.710;2022-09-12T10:00:31;0.95;;;0.55;;
32748;SDS011;19119;52.474;13.710;2022-09-12T10:03:03;0.60;;;0.60;;
32748;SDS011;19119;52.474;13.710;2022-09-12T10:05:31;0.50;;;0.50;;
32748;SDS011;19119;52.474;13.710;2022-09-12T10:07:59;0.90;;;0.70;;
32748;SDS011;19119;52.474;13.710;2022-09-12T10:10:27;0.70;;;0.70;;
32748;SDS011;19119;52.474;13.710;2022-09-12T10:13:12;0.90;;;0.50;;
32748;SDS011;19119;52.474;13.710;2022-09-12T10:15:58;0.82;;;0.50;;
32748;SDS011;19119;52.474;13.710;2022-09-12T10:18:39;0.65;;;0.40;;
32748;SDS011;19119;52.474;13.710;2022-09-12T10:21:13;0.40;;;0.40;;
32748;SDS011;19119;52.474;13.710;2022-09-12T10:23:43;0.98;;;0.50;;
32748;SDS011;19119;52.474;13.710;2022-09-12T10:26:12;0.35;;;0.32;;
32748;SDS011;19119;52.474;13.710;2022-09-12T10:28:40;0.70;;;0.50;;
32748;SDS011;19119;52.474;13.710;2022-09-12T10:31:15;0.73;;;0.57;;
32748;SDS011;19119;52.474;13.710;2022-09-12T10:33:53;0.60;;;0.60;;
32748;SDS011;19119;52.474;13.710;2022-09-12T10:36:24;0.88;;;0.40;;
32748;SDS011;19119;52.474;13.710;2022-09-12T10:38:51;0.82;;;0.50;;
32748;SDS011;19119;52.474;13.710;2022-09-12T10:41:19;0.60;;;0.40;;
32748;SDS011;19119;52.474;13.710;2022-09-12T10:43:45;0.35;;;0.35;;
32748;SDS011;19119;52.474;13.710;2022-09-12T10:46:19;0.90;;;0.50;;
32748;SDS011;19119;52.474;13.710;2022-09-12T10:48:49;0.73;;;0.55;;
32748;SDS011;19119;52.474;13.710;2022-09-12T10:51:33;0.73;;;0.55;;
32748;SDS011;19119;52.474;13.710;2022-09-12T10:54:00;0.63;;;0.47;;
32748;SDS011;19119;52.474;13.710;2022-09-12T10:56:29;1.25;;;0.73;;
32748;SDS011;19119;52.474;13.710;2022-09-12T11:01:43;1.48;;;0.60;;
32748;SDS011;19119;52.474;13.710;2022-09-12T11:17:53;1.63;;;0.57;;
32748;SDS011;19119;52.474;13.710;2022-09-12T11:26:28;0.93;;;0.52;;
32748;SDS011;19119;52.474;13.710;2022-09-12T11:32:05;0.70;;;0.50;;
32748;SDS011;19119;52.474;13.710;2022-09-12T11:35:17;1.42;;;0.70;;
32748;SDS011;19119;52.474;13.710;2022-09-12T11:43:25;0.63;;;0.47;;
32748;SDS011;19119;52.474;13.710;2022-09-12T11:46:01;1.08;;;0.60;;
32748;SDS011;19119;52.474;13.710;2022-09-12T11:51:04;0.45;;;0.30;;
32748;SDS011;19119;52.474;13.710;2022-09-12T11:53:37;0.40;;;0.38;;
32748;SDS011;19119;52.474;13.710;2022-09-12T11:56:12;0.88;;;0.40;;
32748;SDS011;19119;52.474;13.710;2022-09-12T11:58:41;0.77;;;0.50;;
32748;SDS011;19119;52.474;13.710;2022-09-12T12:01:16;0.75;;;0.40;;
32748;SDS011;19119;52.474;13.710;2022-09-12T12:03:46;0.90;;;0.40;;
32748;SDS011;19119;52.474;13.710;2022-09-12T12:06:29;0.60;;;0.50;;
32748;SDS011;19119;52.474;13.710;2022-09-12T12:08:57;0.30;;;0.30;;
32748;SDS011;19119;52.474;13.710;2022-09-12T12:11:25;0.70;;;0.30;;
32748;SDS011;19119;52.474;13.710;2022-09-12T12:14:21;0.68;;;0.40;;
32748;SDS011;19119;52.474;13.710;2022-09-12T12:16:47;0.68;;;0.50;;
32748;SDS011;19119;52.474;13.710;2022-09-12T12:21:40;0.70;;;0.43;;
32748;SDS011;19119;52.474;13.710;2022-09-12T12:29:08;1.25;;;0.40;;
32748;SDS011;19119;52.474;13.710;2022-09-12T12:34:34;0.40;;;0.40;;
32748;SDS011;19119;52.474;13.710;2022-09-12T12:47:38;0.95;;;0.57;;
32748;SDS011;19119;52.474;13.710;2022-09-12T12:52:47;0.85;;;0.57;;
32748;SDS011;19119;52.474;13.710;2022-09-12T12:55:37;0.95;;;0.47;;
32748;SDS011;19119;52.474;13.710;2022-09-12T12:58:34;0.60;;;0.40;;
32748;SDS011;19119;52.474;13.710;2022-09-12T13:03:30;0.60;;;0.40;;
32748;SDS011;19119;52.474;13.710;2022-09-12T13:06:01;0.65;;;0.50;;
32748;SDS011;19119;52.474;13.710;2022-09-12T13:08:35;0.65;;;0.50;;
32748;SDS011;19119;52.474;13.710;2022-09-12T13:11:08;2.30;;;0.52;;
32748;SDS011;19119;52.474;13.710;2022-09-12T13:13:42;1.38;;;0.70;;
32748;SDS011;19119;52.474;13.710;2022-09-12T13:16:29;0.55;;;0.43;;
32748;SDS011;19119;52.474;13.710;2022-09-12T13:19:01;0.50;;;0.50;;
32748;SDS011;19119;52.474;13.710;2022-09-12T13:21:35;0.65;;;0.65;;
32748;SDS011;19119;52.474;13.710;2022-09-12T13:24:13;0.82;;;0.52;;
32748;SDS011;19119;52.474;13.710;2022-09-12T13:26:43;0.95;;;0.52;;
32748;SDS011;19119;52.474;13.710;2022-09-12T13:29:15;1.60;;;0.60;;
32748;SDS011;19119;52.474;13.710;2022-09-12T13:31:43;0.50;;;0.47;;
32748;SDS011;19119;52.474;13.710;2022-09-12T13:34:12;0.90;;;0.70;;
32748;SDS011;19119;52.474;13.710;2022-09-12T13:39:25;0.45;;;0.30;;
32748;SDS011;19119;52.474;13.710;2022-09-12T13:44:41;0.90;;;0.47;;
32748;SDS011;19119;52.474;13.710;2022-09-12T13:47:12;0.83;;;0.60;;
32748;SDS011;19119;52.474;13.710;2022-09-12T13:49:43;0.47;;;0.38;;
32748;SDS011;19119;52.474;13.710;2022-09-12T13:54:45;2.17;;;0.50;;
32748;SDS011;19119;52.474;13.710;2022-09-12T13:59:55;0.85;;;0.70;;
32748;SDS011;19119;52.474;13.710;2022-09-12T14:02:22;0.70;;;0.50;;
32748;SDS011;19119;52.474;13.710;2022-09-12T14:04:51;1.08;;;0.63;;
32748;SDS011;19119;52.474;13.710;2022-09-12T14:07:41;0.95;;;0.60;;
32748;SDS011;19119;52.474;13.710;2022-09-12T14:10:19;1.92;;;0.57;;
32748;SDS011;19119;52.474;13.710;2022-09-12T14:13:09;5.15;;;1.23;;
32748;SDS011;19119;52.474;13.710;2022-09-12T14:15:42;0.70;;;0.70;;
32748;SDS011;19119;52.474;13.710;2022-09-12T14:18:18;3.17;;;0.80;;
32748;SDS011;19119;52.474;13.710;2022-09-12T14:21:08;1.00;;;0.63;;
32748;SDS011;19119;52.474;13.710;2022-09-12T14:23:42;1.35;;;0.60;;
32748;SDS011;19119;52.474;13.710;2022-09-12T14:26:12;1.38;;;0.80;;
32748;SDS011;19119;52.474;13.710;2022-09-12T14:28:39;0.82;;;0.60;;
32748;SDS011;19119;52.474;13.710;2022-09-12T14:31:17;1.13;;;0.60;;
32748;SDS011;19119;52.474;13.710;2022-09-12T14:33:47;0.68;;;0.50;;
32748;SDS011;19119;52.474;13.710;2022-09-12T14:36:16;0.73;;;0.70;;
32748;SDS011;19119;52.474;13.710;2022-09-12T14:38:56;0.80;;;0.50;;
32748;SDS011;19119;52.474;13.710;2022-09-12T14:41:29;1.20;;;0.63;;
32748;SDS011;19119;52.474;13.710;2022-09-12T14:43:59;1.23;;;0.68;;
32748;SDS011;19119;52.474;13.710;2022-09-12T14:46:32;1.30;;;0.50;;
32748;SDS011;19119;52.474;13.710;2022-09-12T14:49:00;1.02;;;0.73;;
32748;SDS011;19119;52.474;13.710;2022-09-12T14:51:52;0.60;;;0.40;;
32748;SDS011;19119;52.474;13.710;2022-09-12T14:56:52;1.15;;;0.50;;
32748;SDS011;19119;52.474;13.710;2022-09-12T14:59:27;0.73;;;0.50;;
32748;SDS011;19119;52.474;13.710;2022-09-12T15:04:50;0.90;;;0.57;;
32748;SDS011;19119;52.474;13.710;2022-09-12T15:10:05;1.90;;;0.57;;
32748;SDS011;19119;52.474;13.710;2022-09-12T15:12:40;0.90;;;0.47;;
32748;SDS011;19119;52.474;13.710;2022-09-12T15:15:11;2.25;;;0.60;;
32748;SDS011;19119;52.474;13.710;2022-09-12T15:17:38;0.98;;;0.65;;
32748;SDS011;19119;52.474;13.710;2022-09-12T15:20:04;1.50;;;0.70;;
32748;SDS011;19119;52.474;13.710;2022-09-12T15:22:30;0.70;;;0.50;;
32748;SDS011;19119;52.474;13.710;2022-09-12T15:24:57;0.82;;;0.65;;
32748;SDS011;19119;52.474;13.710;2022-09-12T15:27:22;0.40;;;0.40;;
32748;SDS011;19119;52.474;13.710;2022-09-12T15:29:50;0.47;;;0.40;;
32748;SDS011;19119;52.474;13.710;2022-09-12T15:32:21;1.10;;;0.60;;
32748;SDS011;19119;52.474;13.710;2022-09-12T15:34:51;0.68;;;0.50;;
32748;SDS011;19119;52.474;13.710;2022-09-12T15:37:18;1.27;;;0.60;;
32748;SDS011;19119;52.474;13.710;2022-09-12T15:39:44;0.50;;;0.50;;
32748;SDS011;19119;52.474;13.710;2022-09-12T15:42:10;0.55;;;0.50;;
32748;SDS011;19119;52.474;13.710;2022-09-12T15:44:37;0.60;;;0.60;;
32748;SDS011;19119;52.474;13.710;2022-09-12T15:47:03;0.52;;;0.43;;
32748;SDS011;19119;52.474;13.710;2022-09-12T15:49:29;0.95;;;0.50;;
32748;SDS011;19119;52.474;13.710;2022-09-12T15:51:54;0.82;;;0.50;;
32748;SDS011;19119;52.474;13.710;2022-09-12T15:54:20;0.57;;;0.47;;
32748;SDS011;19119;52.474;13.710;2022-09-12T15:56:45;0.90;;;0.70;;
32748;SDS011;19119;52.474;13.710;2022-09-12T15:59:11;0.90;;;0.60;;
32748;SDS011;19119;52.474;13.710;2022-09-12T16:01:37;2.28;;;1.02;;
32748;SDS011;19119;52.474;13.710;2022-09-12T16:04:03;1.55;;;0.82;;
32748;SDS011;19119;52.474;13.710;2022-09-12T16:06:47;2.40;;;0.68;;
32748;SDS011;19119;52.474;13.710;2022-09-12T16:09:16;0.98;;;0.65;;
32748;SDS011;19119;52.474;13.710;2022-09-12T16:11:42;0.60;;;0.40;;
32748;SDS011;19119;52.474;13.710;2022-09-12T16:14:09;0.93;;;0.63;;
32748;SDS011;19119;52.474;13.710;2022-09-12T16:16:37;1.35;;;0.80;;
32748;SDS011;19119;52.474;13.710;2022-09-12T16:19:03;1.15;;;0.60;;
32748;SDS011;19119;52.474;13.710;2022-09-12T16:21:28;0.60;;;0.50;;
32748;SDS011;19119;52.474;13.710;2022-09-12T16:23:56;0.80;;;0.60;;
32748;SDS011;19119;52.474;13.710;2022-09-12T16:26:21;1.65;;;0.60;;
32748;SDS011;19119;52.474;13.710;2022-09-12T16:28:52;0.52;;;0.50;;
32748;SDS011;19119;52.474;13.710;2022-09-12T16:31:22;1.75;;;0.60;;
32748;SDS011;19119;52.474;13.710;2022-09-12T16:33:48;1.20;;;0.73;;
32748;SDS011;19119;52.474;13.710;2022-09-12T16:36:14;1.05;;;0.65;;
32748;SDS011;19119;52.474;13.710;2022-09-12T16:41:08;3.00;;;1.17;;
32748;SDS011;19119;52.474;13.710;2022-09-12T16:43:34;1.48;;;0.85;;
32748;SDS011;19119;52.474;13.710;2022-09-12T16:48:34;10.98;;;5.68;;
32748;SDS011;19119;52.474;13.710;2022-09-12T16:51:00;23.98;;;9.45;;
32748;SDS011;19119;52.474;13.710;2022-09-12T16:53:30;19.48;;;6.65;;
32748;SDS011;19119;52.474;13.710;2022-09-12T16:56:01;22.95;;;8.02;;
32748;SDS011;19119;52.474;13.710;2022-09-12T16:58:27;8.20;;;3.92;;
32748;SDS011;19119;52.474;13.710;2022-09-12T17:01:37;4.00;;;2.00;;
32748;SDS011;19119;52.474;13.710;2022-09-12T17:03:45;2.55;;;1.50;;
32748;SDS011;19119;52.474;13.710;2022-09-12T17:06:12;1.33;;;0.80;;
32748;SDS011;19119;52.474;13.710;2022-09-12T17:08:43;1.27;;;0.90;;
32748;SDS011;19119;52.474;13.710;2022-09-12T17:11:11;1.33;;;1.00;;
32748;SDS011;19119;52.474;13.710;2022-09-12T17:13:39;0.70;;;0.70;;
32748;SDS011;19119;52.474;13.710;2022-09-12T17:16:05;1.20;;;0.82;;
32748;SDS011;19119;52.474;13.710;2022-09-12T17:18:32;0.68;;;0.52;;
32748;SDS011;19119;52.474;13.710;2022-09-12T17:20:57;1.05;;;0.70;;
32748;SDS011;19119;52.474;13.710;2022-09-12T17:23:23;1.00;;;0.93;;
32748;SDS011;19119;52.474;13.710;2022-09-12T17:25:49;1.35;;;0.85;;
32748;SDS011;19119;52.474;13.710;2022-09-12T17:28:18;1.20;;;0.77;;
32748;SDS011;19119;52.474;13.710;2022-09-12T17:30:44;0.98;;;0.60;;